Almena, Kansas
Current Conditions -  °F | °C
As of 10:53 PM on Friday 31 Oct 2014 (Local Time) from KHLC Reporting Station
Clear Clear  
Wind Chill: 24°   Ceiling: Unl
Heat Index: 30°   Visibility: 10mi
Dew Point: 16°   Wind: 6mph
Humidity: 56%   Direction: 100°E
Pressure: 30.36"   Gusts: NA
Location:  39.89°N, 99.71°W
Report Text: KHLC 010353Z AUTO 10005KT 10SM CLR M01/M09 A3036 RMK AO2 SLP302 T10111089
Loading
Personal Weather Stations






























Interactive Weather Map
Tropical Storm Tracking
New forecast layout! Learn more

10-Day Weather Forecast

Advertisements
Track Severe Weather on mobile